Time;durP1;ratioP1;P1;durP2;ratioP2;P2;SDS_P1;SDS_P2;PMS_P1;PMS_P2;Temp;Humidity;BMP_temperature;BMP_pressure;BME280_temperature;BME280_humidity;BME280_pressure;Samples;Min_cycle;Max_cycle;Signal;HPM_P1;HPM_P2
2022/04/04 00:02:25;;;;;;;21.77;11.48;;;;;;;5.26;72.54;97078.19;5026035;28;20068;-65
2022/04/04 00:04:52;;;;;;;22.13;11.07;;;;;;;5.28;72.03;97092.41;5021411;28;20062;-60
2022/04/04 00:07:19;;;;;;;22.58;11.75;;;;;;;5.26;73.53;97089.16;5006198;28;20060;-65
2022/04/04 00:09:46;;;;;;;23.75;11.48;;;;;;;5.16;74.18;97081.31;5006111;28;20532;-65
2022/04/04 00:12:13;;;;;;;21.30;12.57;;;;;;;5.02;73.35;97056.09;5004894;28;20579;-65
2022/04/04 00:14:40;;;;;;;25.92;11.93;;;;;;;4.39;74.31;96956.44;5005995;28;20053;-59
2022/04/04 00:17:07;;;;;;;26.65;11.85;;;;;;;5.20;74.38;97065.81;5006164;28;20077;-60
2022/04/04 00:19:33;;;;;;;24.02;11.57;;;;;;;5.01;73.88;97033.31;5005523;28;20049;-58
2022/04/04 00:22:00;;;;;;;19.80;9.90;;;;;;;5.04;73.96;97067.53;5006159;28;20050;-58
2022/04/04 00:24:27;;;;;;;16.80;9.20;;;;;;;4.81;75.23;97071.72;5006094;28;20057;-66
2022/04/04 00:26:54;;;;;;;19.52;10.27;;;;;;;4.69;75.26;97048.53;5004579;28;20062;-58
2022/04/04 00:29:20;;;;;;;21.75;9.93;;;;;;;4.74;75.85;97082.44;5006292;28;20068;-64
2022/04/04 00:31:47;;;;;;;18.73;9.35;;;;;;;4.52;75.62;97048.66;5005469;28;20073;-60
2022/04/04 00:34:14;;;;;;;16.85;7.05;;;;;;;3.90;76.95;97080.53;5005965;28;20062;-58
2022/04/04 00:36:43;;;;;;;25.77;11.63;;;;;;;3.77;79.76;97081.53;5005287;28;20057;-58
2022/04/04 00:39:11;;;;;;;19.38;11.02;;;;;;;3.89;78.90;97089.09;5005453;28;20045;-61
2022/04/04 00:41:38;;;;;;;14.98;10.00;;;;;;;3.83;79.08;97080.22;5003141;28;20151;-64
2022/04/04 00:44:04;;;;;;;19.42;10.50;;;;;;;3.82;79.72;97086.84;5005626;28;20444;-59
2022/04/04 00:46:31;;;;;;;22.52;11.63;;;;;;;3.76;79.19;97077.16;5005425;28;20057;-59
2022/04/04 00:48:58;;;;;;;24.58;11.75;;;;;;;3.91;80.37;97092.28;5005493;28;20228;-65
2022/04/04 00:51:24;;;;;;;22.52;11.30;;;;;;;3.25;81.02;97019.78;5005639;28;20054;-65
2022/04/04 00:53:51;;;;;;;21.70;11.05;;;;;;;3.53;80.54;97059.34;5003915;28;20045;-65
2022/04/04 00:56:18;;;;;;;24.30;10.70;;;;;;;3.00;80.26;96968.63;5005074;28;20493;-65
2022/04/04 00:58:45;;;;;;;30.15;12.18;;;;;;;3.23;81.22;96999.31;5005272;28;20056;-65
2022/04/04 01:01:12;;;;;;;26.67;12.43;;;;;;;1.14;80.19;96665.88;5005272;28;20057;-64
2022/04/04 01:03:39;;;;;;;19.23;11.05;;;;;;;3.72;80.04;97068.00;5003581;28;20315;-65
2022/04/04 01:06:06;;;;;;;21.55;11.20;;;;;;;3.80;80.29;97083.63;5004674;28;20045;-65
2022/04/04 01:08:33;;;;;;;20.48;12.00;;;;;;;3.76;80.59;97066.22;5005814;28;20072;-59
2022/04/04 01:11:00;;;;;;;28.08;11.98;;;;;;;3.85;80.67;97088.94;5003613;28;20061;-65
2022/04/04 01:13:27;;;;;;;24.25;12.00;;;;;;;2.75;81.12;96929.19;5005196;28;20056;-60
2022/04/04 01:15:53;;;;;;;21.90;10.18;;;;;;;3.18;80.11;96992.06;5005029;28;20080;-58
2022/04/04 01:18:20;;;;;;;19.42;9.75;;;;;;;3.08;82.18;97025.25;5003509;28;20061;-59
2022/04/04 01:20:47;;;;;;;23.08;11.35;;;;;;;3.47;81.58;97088.03;5003115;28;20069;-66
2022/04/04 01:23:22;;;;;;;19.52;10.45;;;;;;;3.31;81.68;97065.00;5005288;28;20053;-58
2022/04/04 01:25:49;;;;;;;15.27;8.77;;;;;;;3.33;82.65;97070.97;5003312;28;20157;-65
2022/04/04 01:28:16;;;;;;;16.10;9.07;;;;;;;3.27;82.19;97055.84;5004924;28;20046;-59
2022/04/04 01:30:48;;;;;;;17.85;9.50;;;;;;;3.44;82.35;97083.19;5004718;28;20046;-64
2022/04/04 01:33:15;;;;;;;21.53;10.47;;;;;;;3.43;82.67;97084.31;5004801;28;20472;-64
2022/04/04 01:35:42;;;;;;;21.15;10.93;;;;;;;3.28;83.45;97084.81;5004093;28;20532;-64
2022/04/04 01:38:09;;;;;;;20.70;9.65;;;;;;;3.34;83.36;97093.66;5002782;28;20053;-58
2022/04/04 01:40:35;;;;;;;19.75;9.63;;;;;;;3.34;83.02;97104.59;5004407;28;20440;-65
2022/04/04 01:43:02;;;;;;;18.38;9.48;;;;;;;3.34;82.83;97110.88;5003498;28;20061;-60
2022/04/04 01:48:14;;;;;;;16.00;9.00;;;;;;;3.36;82.90;97108.63;5004944;28;20057;-65
2022/04/04 01:50:41;;;;;;;20.50;9.77;;;;;;;3.42;82.46;97117.47;5002962;28;20176;-63
2022/04/04 01:53:26;;;;;;;17.05;9.23;;;;;;;3.40;81.78;97098.63;5003665;28;20050;-58
2022/04/04 01:55:54;;;;;;;16.42;9.55;;;;;;;3.53;82.08;97126.97;5004328;28;20528;-58
2022/04/04 01:58:22;;;;;;;20.83;10.57;;;;;;;3.39;81.34;97129.88;5004270;28;20823;-65
2022/04/04 02:00:49;;;;;;;22.98;11.05;;;;;;;3.31;81.34;97125.22;5004441;28;20073;-65
2022/04/04 02:03:16;;;;;;;21.05;10.30;;;;;;;3.41;81.06;97119.44;5003847;28;20053;-65
2022/04/04 02:05:44;;;;;;;23.48;10.98;;;;;;;3.34;81.12;97127.31;5023491;28;20045;-59
2022/04/04 02:08:10;;;;;;;25.73;12.90;;;;;;;3.34;81.13;97127.31;5022509;28;20056;-65
2022/04/04 02:10:37;;;;;;;70.60;45.22;;;;;;;3.41;80.72;97138.59;5023616;28;20056;-59
2022/04/04 02:13:04;;;;;;;52.40;32.53;;;;;;;2.76;81.10;97028.47;5023874;28;20046;-64
2022/04/04 02:15:30;;;;;;;28.67;16.55;;;;;;;3.31;81.69;97130.69;5023802;28;20060;-58
2022/04/04 02:17:57;;;;;;;24.98;14.23;;;;;;;3.28;83.16;97134.06;5023004;28;20057;-65
2022/04/04 02:20:24;;;;;;;26.80;12.90;;;;;;;3.21;83.63;97116.53;5021915;28;20053;-65
2022/04/04 02:22:51;;;;;;;27.17;12.82;;;;;;;3.11;83.39;97117.66;5023498;28;20045;-59
2022/04/04 02:25:17;;;;;;;35.35;13.00;;;;;;;3.30;82.68;97140.03;5022157;28;20562;-59
2022/04/04 02:27:44;;;;;;;26.88;12.70;;;;;;;3.27;83.08;97134.41;5023660;28;20459;-58
2022/04/04 02:30:11;;;;;;;24.45;12.68;;;;;;;2.69;83.72;97094.56;5022122;28;20061;-65
2022/04/04 02:32:38;;;;;;;23.35;11.02;;;;;;;3.01;84.04;97139.84;5022027;28;20049;-59
2022/04/04 02:35:06;;;;;;;21.02;10.65;;;;;;;2.75;84.12;97130.78;5021974;28;20151;-60
2022/04/04 02:37:32;;;;;;;16.08;8.75;;;;;;;2.70;84.82;97123.50;5023940;28;20064;-58
2022/04/04 02:40:00;;;;;;;17.63;8.93;;;;;;;2.44;86.89;97121.81;5023837;28;20046;-65
2022/04/04 02:42:26;;;;;;;20.13;9.75;;;;;;;2.36;87.97;97133.53;5023080;28;20054;-59
2022/04/04 02:44:54;;;;;;;17.92;8.80;;;;;;;2.38;87.49;97136.75;5023539;28;20054;-65
2022/04/04 02:47:20;;;;;;;15.82;8.50;;;;;;;2.29;86.97;97141.41;5021939;28;20053;-65
2022/04/04 02:49:47;;;;;;;16.17;9.15;;;;;;;2.50;85.27;97134.22;5023159;28;20456;-58
2022/04/04 02:52:14;;;;;;;38.67;10.55;;;;;;;1.78;85.82;97078.31;5023710;28;20087;-65
2022/04/04 02:54:40;;;;;;;31.42;11.35;;;;;;;0.17;87.30;96809.78;5022132;28;20058;-65
2022/04/04 02:57:07;;;;;;;20.70;10.43;;;;;;;2.14;87.45;97114.47;5023606;28;20492;-58
2022/04/04 02:59:34;;;;;;;17.65;9.35;;;;;;;2.26;87.58;97139.28;5021761;28;20099;-58
2022/04/04 03:02:00;;;;;;;19.23;9.45;;;;;;;2.33;87.10;97106.84;5023649;28;20057;-65
2022/04/04 03:04:27;;;;;;;19.33;9.27;;;;;;;1.88;87.24;97058.94;5016743;28;20085;-58
2022/04/04 03:06:54;;;;;;;16.63;8.98;;;;;;;2.42;86.98;97154.94;5007902;28;20054;-59
2022/04/04 03:09:20;;;;;;;18.67;9.27;;;;;;;2.43;85.27;97136.63;5007914;28;20050;-58
2022/04/04 03:11:47;;;;;;;20.42;8.88;;;;;;;2.27;86.70;97114.38;5007721;28;20046;-60
2022/04/04 03:14:14;;;;;;;23.17;10.10;;;;;;;2.48;87.28;97147.44;5006456;28;20053;-58
2022/04/04 03:16:41;;;;;;;20.08;10.45;;;;;;;2.46;87.23;97146.94;5007121;28;20046;-65
2022/04/04 03:19:07;;;;;;;30.27;14.93;;;;;;;2.02;86.81;97079.56;5006072;28;20049;-57
2022/04/04 03:21:34;;;;;;;49.42;24.83;;;;;;;2.47;84.49;97145.78;5007186;28;20057;-64
2022/04/04 03:24:01;;;;;;;50.08;24.55;;;;;;;1.87;83.66;97081.88;5007369;28;20275;-65
2022/04/04 03:26:31;;;;;;;52.95;24.42;;;;;;;1.36;84.13;96995.88;5007345;28;20054;-58
2022/04/04 03:28:58;;;;;;;39.55;18.42;;;;;;;2.38;84.03;97158.63;5007300;28;20050;-65
2022/04/04 03:31:25;;;;;;;36.63;17.15;;;;;;;1.77;85.03;97087.63;5005451;28;20060;-65
2022/04/04 03:33:52;;;;;;;41.72;18.73;;;;;;;2.30;87.01;97173.06;5007064;28;20505;-58
2022/04/04 03:36:20;;;;;;;30.17;11.95;;;;;;;2.23;86.71;97172.72;5006590;28;20504;-65
2022/04/04 03:38:47;;;;;;;27.17;12.45;;;;;;;2.39;84.98;97165.69;5006566;28;20136;-58
2022/04/04 03:41:15;;;;;;;49.00;16.05;;;;;;;2.34;83.40;97157.66;5006646;28;20068;-58
2022/04/04 03:43:42;;;;;;;38.90;16.35;;;;;;;2.31;84.47;97161.03;5006491;28;20064;-61
2022/04/04 03:46:08;;;;;;;32.08;15.50;;;;;;;2.37;84.48;97162.50;5006973;28;20062;-58
2022/04/04 03:48:35;;;;;;;30.02;13.60;;;;;;;2.33;84.39;97165.03;5006680;28;20509;-59
2022/04/04 03:51:02;;;;;;;37.75;16.48;;;;;;;2.21;85.48;97164.00;5004777;28;20517;-58
2022/04/04 03:53:29;;;;;;;30.08;14.27;;;;;;;2.16;84.31;97237.91;5006676;28;20053;-58
2022/04/04 03:55:55;;;;;;;25.17;10.60;;;;;;;1.47;84.38;97079.09;5006705;28;20519;-65
2022/04/04 03:58:22;;;;;;;26.92;11.60;;;;;;;2.07;84.67;97174.22;5006448;28;20053;-65
2022/04/04 04:00:49;;;;;;;31.70;13.10;;;;;;;2.07;83.23;97196.09;5006037;28;20535;-60
2022/04/04 04:03:16;;;;;;;26.35;11.77;;;;;;;1.72;84.77;97194.22;5006216;28;20183;-58
2022/04/04 04:05:43;;;;;;;19.23;10.52;;;;;;;2.14;85.24;97204.63;5025645;28;20063;-58
2022/04/04 04:08:10;;;;;;;28.10;11.13;;;;;;;2.16;84.77;97199.66;5026242;28;20348;-58
2022/04/04 04:10:37;;;;;;;22.50;10.10;;;;;;;1.58;84.24;97115.91;5024679;28;20522;-64
2022/04/04 04:13:05;;;;;;;72.70;29.20;;;;;;;2.04;85.00;97191.25;5026339;28;20061;-64
2022/04/04 04:15:32;;;;;;;104.32;38.40;;;;;;;2.19;85.49;97215.44;5024858;28;20146;-58
2022/04/04 04:17:59;;;;;;;29.65;14.70;;;;;;;1.75;85.02;97149.91;5025870;28;20464;-57
2022/04/04 04:20:29;;;;;;;27.38;11.75;;;;;;;2.27;84.48;97217.41;5023969;28;20524;-59
2022/04/04 04:23:02;;;;;;;31.50;12.07;;;;;;;2.14;84.75;97221.00;5024308;28;20190;-59
2022/04/04 04:25:30;;;;;;;28.58;11.68;;;;;;;2.05;84.95;97220.16;5025711;28;20049;-65
2022/04/04 04:28:00;;;;;;;20.40;9.60;;;;;;;2.11;86.10;97225.19;5025815;28;20072;-65
2022/04/04 04:30:28;;;;;;;23.38;8.73;;;;;;;1.96;85.66;97211.13;5023446;28;20049;-64
2022/04/04 04:32:55;;;;;;;19.50;9.02;;;;;;;1.79;85.75;97180.97;5026479;28;20531;-59
2022/04/04 04:35:23;;;;;;;20.65;9.00;;;;;;;2.29;84.12;97247.97;5025648;28;20088;-58
2022/04/04 04:37:51;;;;;;;19.45;9.07;;;;;;;2.40;83.51;97254.78;5025521;28;20151;-57
2022/04/04 04:40:18;;;;;;;16.42;8.20;;;;;;;2.39;82.81;97261.34;5024917;28;20059;-60
2022/04/04 04:42:47;;;;;;;24.92;12.20;;;;;;;2.40;80.61;97243.84;5025134;28;20068;-58
2022/04/04 04:45:14;;;;;;;28.92;12.20;;;;;;;-0.33;80.65;96838.16;5025245;28;20064;-65
2022/04/04 04:47:42;;;;;;;22.23;11.10;;;;;;;2.77;81.31;97265.25;5025015;28;20049;-57
2022/04/04 04:50:13;;;;;;;20.35;10.60;;;;;;;2.80;81.05;97270.09;5024172;28;20480;-64
2022/04/04 04:52:41;;;;;;;25.10;10.27;;;;;;;3.21;79.52;97281.53;5021939;28;20057;-58
2022/04/04 04:55:09;;;;;;;20.63;9.90;;;;;;;3.26;78.24;97288.81;5025182;28;20141;-63
2022/04/04 04:57:36;;;;;;;25.95;10.55;;;;;;;2.93;77.67;97236.38;5024958;28;20505;-63
2022/04/04 05:00:05;;;;;;;24.08;10.38;;;;;;;3.37;77.78;97290.91;5025323;28;20144;-64
2022/04/04 05:02:34;;;;;;;19.60;10.32;;;;;;;3.03;78.33;97230.63;5023207;28;20049;-64
2022/04/04 05:05:01;;;;;;;24.42;11.25;;;;;;;3.37;76.93;97258.06;5013751;28;20046;-64
2022/04/04 05:07:28;;;;;;;25.40;11.98;;;;;;;3.71;77.38;97301.16;5003782;28;20062;-58
2022/04/04 05:09:55;;;;;;;26.27;11.50;;;;;;;3.81;77.20;97295.38;5003719;28;20050;-59
2022/04/04 05:12:22;;;;;;;19.00;10.40;;;;;;;3.88;75.78;97291.03;5003817;28;20053;-63
2022/04/04 05:14:49;;;;;;;22.52;10.15;;;;;;;4.02;75.66;97297.16;5004763;28;20063;-58
2022/04/04 05:17:15;;;;;;;20.73;10.27;;;;;;;4.21;74.79;97305.03;5005049;28;20488;-64
2022/04/04 05:19:42;;;;;;;27.75;11.23;;;;;;;3.91;74.27;97240.25;5005131;28;20054;-61
2022/04/04 05:22:09;;;;;;;23.15;11.05;;;;;;;4.57;73.84;97306.31;5005009;28;20076;-64
2022/04/04 05:24:36;;;;;;;30.50;12.98;;;;;;;4.68;72.04;97297.75;5004943;28;20444;-58
2022/04/04 05:27:03;;;;;;;22.25;10.02;;;;;;;4.74;71.21;97307.41;5005012;28;20058;-58
2022/04/04 05:29:30;;;;;;;17.98;9.88;;;;;;;4.96;69.72;97301.69;5004758;28;20056;-59
2022/04/04 05:31:57;;;;;;;25.20;9.40;;;;;;;5.14;69.10;97314.25;5004764;28;20480;-57
2022/04/04 05:34:26;;;;;;;17.77;9.80;;;;;;;5.03;68.95;97296.50;5004306;28;20054;-64
2022/04/04 05:36:57;;;;;;;19.10;9.02;;;;;;;5.31;66.91;97314.16;5004486;28;20057;-59
2022/04/04 05:39:24;;;;;;;20.58;9.18;;;;;;;5.32;67.40;97324.81;5004562;28;20050;-61
2022/04/04 05:41:52;;;;;;;17.75;9.43;;;;;;;5.20;67.35;97321.94;5004244;28;20050;-59
2022/04/04 05:44:19;;;;;;;17.35;9.13;;;;;;;4.44;68.36;97211.28;5004735;28;20100;-60
2022/04/04 05:46:46;;;;;;;20.77;9.80;;;;;;;4.82;68.31;97233.28;5002778;28;20578;-58
2022/04/04 05:49:13;;;;;;;16.17;9.40;;;;;;;5.13;66.15;97243.97;5004723;28;20054;-58
2022/04/04 05:51:40;;;;;;;19.98;9.60;;;;;;;5.81;66.11;97312.28;5003858;28;20085;-65
2022/04/04 05:54:26;;;;;;;19.00;9.82;;;;;;;6.15;65.86;97331.31;5004328;28;20538;-64
2022/04/04 05:56:53;;;;;;;18.45;8.60;;;;;;;6.32;65.35;97313.88;5004752;28;20062;-64
2022/04/04 05:59:22;;;;;;;16.73;9.45;;;;;;;6.71;63.91;97327.94;5004556;28;20065;-57
2022/04/04 06:01:49;;;;;;;21.38;11.18;;;;;;;6.91;63.12;97327.06;5004360;28;20595;-58
2022/04/04 06:04:16;;;;;;;17.27;10.77;;;;;;;7.01;62.31;97310.13;5006733;28;20049;-66
2022/04/04 06:06:43;;;;;;;35.90;17.15;;;;;;;7.16;62.82;97317.72;5023217;28;20496;-63
2022/04/04 06:09:09;;;;;;;39.92;21.30;;;;;;;7.39;62.14;97327.19;5013746;28;20054;-59
2022/04/04 06:11:36;;;;;;;25.48;13.48;;;;;;;7.58;61.41;97329.38;5004401;28;20050;-61
2022/04/04 06:14:03;;;;;;;19.00;10.98;;;;;;;7.82;58.85;97321.13;5003114;28;20050;-57
2022/04/04 06:16:29;;;;;;;18.60;10.27;;;;;;;7.89;55.96;97295.72;5018255;28;20057;-68
2022/04/04 06:18:56;;;;;;;19.63;10.68;;;;;;;8.00;54.57;97310.66;5013427;28;20068;-59
2022/04/04 06:21:23;;;;;;;20.98;10.48;;;;;;;8.11;54.92;97264.88;5001896;28;20177;-58
2022/04/04 06:23:50;;;;;;;24.60;11.35;;;;;;;8.67;54.33;97316.22;5003425;28;20082;-58
2022/04/04 06:26:17;;;;;;;16.60;9.15;;;;;;;8.83;53.31;97320.66;5001685;28;20054;-59
2022/04/04 06:28:44;;;;;;;16.67;9.65;;;;;;;7.50;55.68;97303.53;5003138;28;20084;-59
2022/04/04 06:31:10;;;;;;;18.20;10.00;;;;;;;8.06;56.10;97328.56;5005011;28;20773;-66
2022/04/04 06:33:39;;;;;;;16.52;9.32;;;;;;;8.16;55.58;97278.41;5020740;28;20048;-69
2022/04/04 06:36:06;;;;;;;15.52;8.48;;;;;;;8.01;53.42;97251.56;5011078;28;20444;-60
2022/04/04 06:38:33;;;;;;;14.65;8.30;;;;;;;8.44;52.65;97298.59;5008820;28;20061;-61
2022/04/04 06:41:00;;;;;;;12.18;7.38;;;;;;;8.72;52.10;97335.31;5024641;28;20049;-65
2022/04/04 06:43:27;;;;;;;11.30;6.68;;;;;;;7.79;52.21;97271.34;5027217;28;20049;-64
2022/04/04 06:45:53;;;;;;;10.68;7.13;;;;;;;8.56;51.42;97348.25;5023234;28;20425;-57
2022/04/04 06:48:22;;;;;;;11.18;7.57;;;;;;;8.89;50.87;97319.25;5025997;28;20128;-63
2022/04/04 06:50:49;;;;;;;12.43;6.03;;;;;;;9.36;49.08;97352.47;5014651;28;20509;-60
2022/04/04 06:53:21;;;;;;;8.93;6.05;;;;;;;9.43;47.92;97349.91;5007585;28;20054;-58
2022/04/04 06:55:49;;;;;;;9.95;5.90;;;;;;;8.97;48.24;97315.53;5011209;28;20508;-62
2022/04/04 06:58:16;;;;;;;10.63;5.68;;;;;;;9.55;48.29;97341.53;5020238;28;20060;-58
2022/04/04 07:00:42;;;;;;;64.00;29.30;;;;;;;8.45;47.70;97156.66;5017146;28;20054;-62
2022/04/04 07:03:10;;;;;;;14.02;7.38;;;;;;;9.91;46.63;97288.66;5013885;28;20060;-65
2022/04/04 07:05:37;;;;;;;7.53;5.82;;;;;;;10.54;44.29;97353.81;5017973;28;20042;-67
2022/04/04 07:08:04;;;;;;;7.53;4.95;;;;;;;9.56;44.10;97182.75;5011652;28;20056;-60
2022/04/04 07:10:32;;;;;;;6.15;4.20;;;;;;;10.46;41.96;97313.28;5009440;28;20503;-68
2022/04/04 07:12:59;;;;;;;6.45;4.53;;;;;;;10.15;42.50;97354.91;5015031;28;20046;-58
2022/04/04 07:15:25;;;;;;;4.32;3.88;;;;;;;10.02;42.94;97356.13;5027060;28;20053;-58
2022/04/04 07:17:52;;;;;;;7.00;5.10;;;;;;;9.07;44.10;97270.78;5026813;28;20049;-57
2022/04/04 07:20:19;;;;;;;6.10;4.75;;;;;;;10.07;43.91;97355.91;5013051;28;20085;-65
2022/04/04 07:22:46;;;;;;;8.00;5.25;;;;;;;10.24;42.86;97358.28;5014476;28;20175;-56
2022/04/04 07:25:16;;;;;;;7.03;4.90;;;;;;;10.40;43.14;97358.25;5019852;28;20061;-60
2022/04/04 07:27:45;;;;;;;8.38;4.65;;;;;;;9.00;44.71;97363.72;5012000;28;20046;-58
2022/04/04 07:30:16;;;;;;;5.88;4.00;;;;;;;9.66;44.45;97367.50;5012141;28;20049;-69
2022/04/04 07:32:44;;;;;;;6.25;4.63;;;;;;;9.97;43.42;97348.13;5020670;28;20058;-68
2022/04/04 07:35:12;;;;;;;7.80;4.85;;;;;;;10.63;42.62;97365.50;5014014;28;20058;-59
2022/04/04 07:37:40;;;;;;;9.73;6.05;;;;;;;10.72;41.74;97306.31;5008821;28;20454;-56
2022/04/04 07:40:10;;;;;;;7.40;4.95;;;;;;;11.54;41.34;97371.31;5023012;28;20067;-63
2022/04/04 07:42:40;;;;;;;7.30;4.72;;;;;;;11.53;39.83;97369.69;5020771;28;20432;-70
2022/04/04 07:45:09;;;;;;;6.05;4.43;;;;;;;11.36;40.65;97381.25;4826188;28;5001402;-56
2022/04/04 07:47:37;;;;;;;8.45;4.65;;;;;;;11.14;40.52;97401.41;5012407;28;20046;-60
2022/04/04 07:50:06;;;;;;;6.88;4.85;;;;;;;11.35;41.25;97374.91;5019821;28;20051;-67
2022/04/04 07:52:32;;;;;;;11.82;7.05;;;;;;;10.73;41.42;97302.38;5023576;28;20063;-64
2022/04/04 07:54:59;;;;;;;6.45;4.65;;;;;;;11.09;40.38;97343.47;5021495;28;20180;-66
2022/04/04 07:57:26;;;;;;;7.13;5.07;;;;;;;11.40;40.10;97359.94;5022224;28;20415;-67
2022/04/04 07:59:53;;;;;;;7.05;4.63;;;;;;;10.78;41.18;97349.19;5013324;28;20050;-60
2022/04/04 08:02:20;;;;;;;6.38;4.05;;;;;;;11.20;41.85;97380.53;5011661;28;20161;-58
2022/04/04 08:04:47;;;;;;;6.38;4.45;;;;;;;11.12;41.40;97362.16;5009307;28;20045;-56
2022/04/04 08:07:15;;;;;;;7.78;5.45;;;;;;;10.38;41.53;97286.63;5020847;28;20132;-69
2022/04/04 08:09:42;;;;;;;7.50;4.70;;;;;;;11.21;40.86;97374.63;5016753;28;20088;-60
2022/04/04 08:12:09;;;;;;;5.55;4.20;;;;;;;11.20;40.72;97366.66;5019760;28;20536;-61
2022/04/04 08:14:37;;;;;;;7.35;4.95;;;;;;;11.35;41.06;97372.13;5015544;28;20053;-63
2022/04/04 08:17:05;;;;;;;6.20;4.60;;;;;;;10.99;40.91;97277.53;5007569;28;20045;-57
2022/04/04 08:19:32;;;;;;;6.55;4.88;;;;;;;11.31;40.57;97285.28;5019648;28;20050;-56
2022/04/04 08:21:59;;;;;;;9.98;5.40;;;;;;;9.44;41.00;96986.56;5013419;28;20492;-64
2022/04/04 08:24:26;;;;;;;6.45;4.80;;;;;;;11.16;41.79;97315.91;5005939;28;20460;-64
2022/04/04 08:26:53;;;;;;;7.13;5.05;;;;;;;11.66;40.59;97357.28;5022608;28;20183;-65
2022/04/04 08:29:20;;;;;;;10.38;5.05;;;;;;;10.82;41.04;97305.72;5019245;28;20065;-57
2022/04/04 08:31:47;;;;;;;6.72;4.95;;;;;;;11.46;41.21;97358.47;5022962;28;20042;-67
2022/04/04 08:34:14;;;;;;;6.60;5.20;;;;;;;11.55;41.33;97356.25;5015086;28;20111;-64
2022/04/04 08:36:41;;;;;;;6.95;5.10;;;;;;;11.45;41.90;97351.31;5004667;28;20079;-56
2022/04/04 08:39:08;;;;;;;7.65;5.40;;;;;;;11.12;42.28;97298.38;5011209;28;20076;-57
2022/04/04 08:41:36;;;;;;;9.75;5.45;;;;;;;11.63;41.25;97327.50;5011968;28;20056;-67
2022/04/04 08:44:04;;;;;;;8.35;5.30;;;;;;;11.78;41.93;97359.84;5006736;28;20061;-56
2022/04/04 08:46:33;;;;;;;7.50;5.50;;;;;;;11.71;41.03;97315.34;5018708;28;20072;-58
2022/04/04 08:49:04;;;;;;;9.70;5.75;;;;;;;10.62;42.16;97269.69;5011075;28;20046;-60
2022/04/04 08:51:31;;;;;;;7.18;5.50;;;;;;;11.42;40.99;97335.41;5025246;28;20077;-64
2022/04/04 08:53:57;;;;;;;6.45;4.65;;;;;;;11.47;42.25;97332.31;5025058;28;20107;-65
2022/04/04 08:56:26;;;;;;;10.40;5.80;;;;;;;11.60;41.39;97325.44;5023301;28;20203;-70
2022/04/04 08:58:55;;;;;;;8.85;5.88;;;;;;;11.60;42.56;97314.34;5020920;28;20072;-65
2022/04/04 09:01:25;;;;;;;8.70;5.25;;;;;;;11.74;41.74;97314.59;5007332;28;20057;-57
2022/04/04 09:04:01;;;;;;;10.57;6.18;;;;;;;11.45;42.36;97262.53;5013454;28;20393;-63
2022/04/04 09:06:28;;;;;;;7.88;5.60;;;;;;;11.65;42.23;97306.53;5017699;28;20111;-63
2022/04/04 09:08:56;;;;;;;6.45;5.13;;;;;;;11.78;41.00;97293.25;5016654;28;20085;-57
2022/04/04 09:11:24;;;;;;;6.50;4.95;;;;;;;12.11;41.40;97282.25;5023181;28;20057;-58
2022/04/04 09:14:06;;;;;;;6.07;4.57;;;;;;;11.89;40.33;97125.72;5022019;28;20148;-59
2022/04/04 09:16:34;;;;;;;7.15;4.93;;;;;;;12.71;39.14;97247.75;5009643;28;20083;-60
2022/04/04 09:19:02;;;;;;;6.05;4.72;;;;;;;13.22;38.53;97262.66;5005607;28;20100;-68
2022/04/04 09:21:31;;;;;;;5.50;3.40;;;;;;;13.55;36.99;97257.00;5004284;28;20046;-58
2022/04/04 09:24:02;;;;;;;4.72;3.80;;;;;;;13.29;36.32;97218.19;5004653;28;20528;-57
2022/04/04 09:26:29;;;;;;;4.57;3.83;;;;;;;13.44;36.51;97252.53;5005134;28;20567;-57
2022/04/04 09:28:56;;;;;;;5.13;3.97;;;;;;;13.20;37.13;97248.34;5004757;28;20084;-68
2022/04/04 09:31:24;;;;;;;6.82;3.80;;;;;;;13.05;37.41;97234.66;5002987;28;20062;-57
2022/04/04 09:33:51;;;;;;;4.13;3.70;;;;;;;12.73;36.90;97162.00;5004190;28;20053;-57
2022/04/04 09:36:18;;;;;;;4.10;3.65;;;;;;;13.34;36.94;97231.78;5004327;28;20061;-67
2022/04/04 09:39:08;;;;;;;3.95;2.85;;;;;;;13.34;35.45;97237.34;5004762;28;20053;-61
2022/04/04 09:41:39;;;;;;;5.53;4.03;;;;;;;13.18;36.09;97200.63;5003058;28;20083;-71
2022/04/04 09:44:08;;;;;;;4.38;3.28;;;;;;;13.07;35.99;97221.19;5003936;28;20069;-70
2022/04/04 09:46:40;;;;;;;4.32;3.15;;;;;;;13.26;35.85;97218.19;5003128;28;20103;-57
2022/04/04 09:49:15;;;;;;;4.80;3.47;;;;;;;13.24;35.67;97215.81;5004293;28;20060;-60
2022/04/04 09:51:51;;;;;;;3.72;3.30;;;;;;;12.45;35.99;97100.59;5002662;28;20049;-70
2022/04/04 09:54:23;;;;;;;7.72;3.97;;;;;;;13.37;36.26;97164.22;5004218;28;20061;-59
2022/04/04 09:56:56;;;;;;;4.80;3.92;;;;;;;13.51;36.74;97150.41;5004101;28;20104;-56
2022/04/04 09:59:30;;;;;;;4.03;3.28;;;;;;;13.93;34.95;97196.44;5002570;28;20065;-57
2022/04/04 10:01:57;;;;;;;6.47;3.65;;;;;;;13.87;35.71;97214.69;5002662;28;20054;-57
2022/04/04 10:04:26;;;;;;;5.32;4.25;;;;;;;13.44;35.80;97114.19;5014079;28;20049;-58
2022/04/04 10:06:53;;;;;;;6.30;4.18;;;;;;;13.33;35.31;97066.03;5023840;28;20053;-57
2022/04/04 10:09:20;;;;;;;4.70;4.20;;;;;;;14.11;35.21;97180.63;5018321;28;20050;-68
2022/04/04 10:11:47;;;;;;;4.97;3.90;;;;;;;14.32;35.15;97180.78;5003894;28;20050;-58
2022/04/04 10:14:20;;;;;;;3.63;3.33;;;;;;;14.10;34.92;97145.63;5013137;28;20125;-56
2022/04/04 10:16:48;;;;;;;3.75;3.45;;;;;;;13.93;34.32;97130.41;5008839;28;20060;-57
2022/04/04 10:19:17;;;;;;;3.67;3.38;;;;;;;14.19;34.52;97188.66;5017135;28;20558;-63
2022/04/04 10:21:44;;;;;;;4.38;3.10;;;;;;;13.66;34.48;97078.94;5009631;28;20046;-59
2022/04/04 10:24:11;;;;;;;4.78;3.28;;;;;;;13.96;34.83;97167.84;5004691;28;20520;-66
2022/04/04 10:26:39;;;;;;;4.78;3.22;;;;;;;14.02;34.48;97167.03;5004552;28;20068;-59
2022/04/04 10:29:11;;;;;;;4.03;3.60;;;;;;;13.91;35.15;97160.63;5007311;28;20053;-59
2022/04/04 10:31:50;;;;;;;3.72;3.40;;;;;;;13.96;35.31;97157.47;5023180;28;20136;-64
2022/04/04 13:32:38;;;;;;;18.17;9.85;;;;;;;15.63;36.69;96940.53;4981264;28;20096;-57
2022/04/04 13:35:05;;;;;;;;;;;;;;;15.07;37.66;96937.88;5003408;28;20049;-61
2022/04/04 13:37:31;;;;;;;7.88;5.75;;;;;;;14.66;37.54;96942.31;5004979;28;19926;-60
2022/04/04 13:39:59;;;;;;;11.98;7.57;;;;;;;14.63;37.17;96899.31;5004619;28;20061;-57
2022/04/04 13:42:26;;;;;;;17.73;9.10;;;;;;;14.76;37.73;96877.38;5004748;28;20062;-61
2022/04/04 13:44:53;;;;;;;10.05;6.70;;;;;;;14.86;37.04;96849.47;5002917;28;20057;-61
2022/04/04 13:47:19;;;;;;;9.45;6.45;;;;;;;15.31;36.26;96911.91;5001707;28;20058;-57
2022/04/04 13:49:46;;;;;;;5.88;4.47;;;;;;;15.45;36.50;96925.03;5003840;28;20400;-60
2022/04/04 13:52:13;;;;;;;5.90;5.30;;;;;;;15.53;36.24;96960.91;5004269;28;20046;-61
2022/04/04 13:54:42;;;;;;;6.07;5.22;;;;;;;15.15;36.24;96822.28;5002484;28;20058;-61
2022/04/04 13:57:12;;;;;;;8.98;5.93;;;;;;;15.71;36.96;96897.38;5002870;28;20418;-61
2022/04/04 13:59:39;;;;;;;6.95;5.35;;;;;;;15.09;37.66;96902.78;5004155;28;20072;-57
2022/04/04 14:02:06;;;;;;;10.77;7.60;;;;;;;14.83;38.35;96920.00;5003049;28;20137;-58
2022/04/04 14:04:35;;;;;;;7.35;5.35;;;;;;;13.55;36.85;96624.47;5004123;28;20054;-61
2022/04/04 14:07:03;;;;;;;8.88;6.45;;;;;;;9.66;36.98;96042.13;5004354;28;20054;-58
2022/04/04 14:09:30;;;;;;;8.10;6.60;;;;;;;15.31;37.41;96874.81;5003859;28;20094;-59
2022/04/04 14:11:57;;;;;;;8.90;6.75;;;;;;;15.16;37.21;96863.72;5003766;28;20049;-62
2022/04/04 14:14:25;;;;;;;8.95;6.07;;;;;;;14.57;38.41;96831.25;5003975;28;20084;-61
2022/04/04 14:16:52;;;;;;;8.02;5.43;;;;;;;15.17;38.04;96898.00;5004204;28;20049;-58
2022/04/04 14:19:19;;;;;;;6.32;5.35;;;;;;;14.90;38.49;96889.31;5003014;28;20049;-57
2022/04/04 14:21:46;;;;;;;10.40;6.50;;;;;;;14.80;38.46;96897.69;5003981;28;20050;-58
2022/04/04 14:24:12;;;;;;;7.47;5.28;;;;;;;14.45;38.67;96839.19;5002175;28;20053;-61
2022/04/04 14:26:39;;;;;;;5.70;4.72;;;;;;;14.82;38.44;96892.50;5002121;28;20108;-59
2022/04/04 14:29:06;;;;;;;6.47;5.60;;;;;;;14.79;38.56;96893.31;5003705;28;20060;-63
2022/04/04 14:31:33;;;;;;;6.22;4.70;;;;;;;14.60;38.76;96896.53;5003554;28;20056;-58
2022/04/04 14:34:01;;;;;;;9.32;5.65;;;;;;;14.44;39.36;96882.19;5002243;28;20065;-60